createdAt,value
2023-02-11T00:00:23.443Z,4.20
2023-02-11T00:02:50.539Z,4.20
2023-02-11T00:05:17.573Z,4.30
2023-02-11T00:07:44.510Z,4.30
2023-02-11T00:10:11.571Z,4.30
2023-02-11T00:12:38.762Z,4.30
2023-02-11T00:15:07.976Z,4.30
2023-02-11T00:17:34.944Z,4.30
2023-02-11T00:20:02.093Z,4.30
2023-02-11T00:22:29.085Z,4.40
2023-02-11T00:24:57.254Z,4.30
2023-02-11T00:27:24.316Z,4.40
2023-02-11T00:29:51.295Z,4.40
2023-02-11T00:32:18.222Z,4.40
2023-02-11T00:34:45.107Z,4.40
2023-02-11T00:37:12.533Z,4.40
2023-02-11T00:39:39.946Z,4.40
2023-02-11T00:42:07.117Z,4.40
2023-02-11T00:44:34.311Z,4.50
2023-02-11T00:47:01.491Z,4.50
2023-02-11T00:49:28.688Z,4.40
2023-02-11T00:51:55.881Z,4.50
2023-02-11T00:54:23.030Z,4.50
2023-02-11T00:56:50.139Z,4.50
2023-02-11T00:59:17.245Z,4.50
2023-02-11T01:01:44.425Z,4.50
2023-02-11T01:04:11.492Z,4.40
2023-02-11T01:06:38.848Z,4.40
2023-02-11T01:09:06.050Z,4.50
2023-02-11T01:11:32.927Z,4.40
2023-02-11T01:14:00.428Z,4.40
2023-02-11T01:16:27.487Z,4.40
2023-02-11T01:18:54.682Z,4.40
2023-02-11T01:21:21.940Z,4.30
2023-02-11T01:23:49.105Z,4.30
2023-02-11T01:26:16.436Z,4.30
2023-02-11T01:28:43.460Z,4.30
2023-02-11T01:31:10.858Z,4.30
2023-02-11T01:33:38.266Z,4.30
2023-02-11T01:36:07.159Z,4.30
2023-02-11T01:38:35.242Z,4.30
2023-02-11T01:41:06.644Z,4.30
2023-02-11T01:43:39.918Z,4.40
2023-02-11T01:46:31.387Z,4.40
2023-02-11T01:49:13.152Z,4.40
2023-02-11T01:51:46.450Z,4.50
2023-02-11T01:54:35.887Z,4.50
2023-02-11T01:57:22.937Z,4.50
2023-02-11T02:00:15.223Z,4.50
2023-02-11T02:02:45.062Z,4.50
2023-02-11T02:05:42.246Z,4.40
2023-02-11T02:08:22.006Z,4.50
2023-02-11T02:10:54.189Z,4.50
2023-02-11T02:13:21.527Z,4.50
2023-02-11T02:15:52.720Z,4.50
2023-02-11T02:18:25.794Z,4.50
2023-02-11T02:21:44.761Z,4.50
2023-02-11T02:24:39.864Z,4.50
2023-02-11T02:27:31.617Z,4.50
2023-02-11T02:30:04.918Z,4.60
2023-02-11T02:32:56.173Z,4.60
2023-02-11T02:35:42.921Z,4.60
2023-02-11T02:38:28.415Z,4.60
2023-02-11T02:41:08.183Z,4.60
2023-02-11T02:43:38.850Z,4.60
2023-02-11T02:46:12.336Z,4.60
2023-02-11T02:48:39.394Z,4.50
2023-02-11T02:51:15.510Z,4.60
2023-02-11T02:53:54.789Z,4.60
2023-02-11T02:56:47.117Z,4.60
2023-02-11T02:59:53.254Z,4.60
2023-02-11T03:02:41.437Z,4.60
2023-02-11T03:05:30.427Z,4.60
2023-02-11T03:08:08.555Z,4.60
2023-02-11T03:10:49.836Z,4.60
2023-02-11T03:13:19.522Z,4.60
2023-02-11T03:15:51.697Z,4.60
2023-02-11T03:18:22.790Z,4.60
2023-02-11T03:20:53.572Z,4.60
2023-02-11T03:23:33.189Z,4.50
2023-02-11T03:26:09.001Z,4.60
2023-02-11T03:28:48.513Z,4.60
2023-02-11T03:31:22.286Z,4.60
2023-02-11T03:34:08.919Z,4.60
2023-02-11T03:36:46.168Z,4.60
2023-02-11T03:39:17.744Z,4.60
2023-02-11T03:41:47.734Z,4.60
2023-02-11T03:44:17.434Z,4.70
2023-02-11T03:46:54.090Z,4.60
2023-02-11T03:49:23.511Z,4.60
2023-02-11T03:51:53.225Z,4.60
2023-02-11T03:54:29.578Z,4.70
2023-02-11T03:57:01.267Z,4.60
2023-02-11T03:59:29.067Z,4.70
2023-02-11T04:01:56.345Z,4.70
2023-02-11T04:04:23.576Z,4.70
2023-02-11T04:06:52.136Z,4.70
2023-02-11T04:09:19.271Z,4.70
2023-02-11T04:11:46.241Z,4.70
2023-02-11T04:14:13.390Z,4.70
2023-02-11T04:16:40.468Z,4.70
2023-02-11T04:19:07.589Z,4.70
2023-02-11T04:21:34.806Z,4.70
2023-02-11T04:24:01.818Z,4.80
2023-02-11T04:26:28.996Z,4.80
2023-02-11T04:28:56.038Z,4.80
2023-02-11T04:31:23.046Z,4.70
2023-02-11T04:33:50.107Z,4.70
2023-02-11T04:36:17.139Z,4.70
2023-02-11T04:38:44.132Z,4.70
2023-02-11T04:41:12.168Z,4.70
2023-02-11T04:43:39.195Z,4.80
2023-02-11T04:46:06.370Z,4.80
2023-02-11T04:48:35.161Z,4.70
2023-02-11T04:51:02.835Z,4.80
2023-02-11T04:53:29.927Z,4.80
2023-02-11T04:55:59.978Z,4.80
2023-02-11T04:58:27.172Z,4.80
2023-02-11T05:00:54.372Z,4.80
2023-02-11T05:03:21.340Z,4.80
2023-02-11T05:05:48.637Z,4.80
2023-02-11T05:08:15.996Z,4.80
2023-02-11T05:10:47.055Z,4.80
2023-02-11T05:13:14.310Z,4.90
2023-02-11T05:15:41.279Z,4.90
2023-02-11T05:18:08.590Z,4.90
2023-02-11T05:20:38.152Z,4.90
2023-02-11T05:23:05.350Z,4.90
2023-02-11T05:25:32.515Z,4.90
2023-02-11T05:27:59.508Z,4.90
2023-02-11T05:30:26.627Z,4.90
2023-02-11T05:32:53.938Z,4.90
2023-02-11T05:35:21.107Z,4.90
2023-02-11T05:37:48.217Z,4.90
2023-02-11T05:40:15.241Z,4.90
2023-02-11T05:42:48.351Z,4.90
2023-02-11T05:45:15.245Z,4.90
2023-02-11T05:47:42.248Z,4.90
2023-02-11T05:50:09.322Z,4.90
2023-02-11T05:52:36.346Z,5.00
2023-02-11T05:55:03.682Z,5.00
2023-02-11T05:57:30.650Z,5.00
2023-02-11T05:59:57.838Z,5.10
2023-02-11T06:02:25.000Z,5.00
2023-02-11T06:04:51.924Z,5.00
2023-02-11T06:07:19.891Z,5.00
2023-02-11T06:09:46.836Z,5.00
2023-02-11T06:12:13.918Z,5.00
2023-02-11T06:14:40.993Z,5.10
2023-02-11T06:17:07.997Z,5.00
2023-02-11T06:19:35.012Z,5.00
2023-02-11T06:22:02.267Z,5.10
2023-02-11T06:24:54.727Z,5.10
2023-02-11T06:27:16.339Z,5.10
2023-02-11T06:29:55.025Z,5.10
2023-02-11T06:32:45.203Z,5.10
2023-02-11T06:35:14.250Z,5.10
2023-02-11T06:37:41.931Z,5.10
2023-02-11T06:40:09.933Z,5.10
2023-02-11T06:42:39.229Z,5.10
2023-02-11T06:45:09.145Z,5.10
2023-02-11T06:47:36.210Z,5.10
2023-02-11T06:50:03.584Z,5.10
2023-02-11T06:52:30.483Z,5.10
2023-02-11T06:54:57.539Z,5.20
2023-02-11T06:57:24.483Z,5.10
2023-02-11T06:59:51.817Z,5.10
2023-02-11T07:02:20.874Z,5.10
2023-02-11T07:04:48.191Z,5.20
2023-02-11T07:07:15.359Z,5.20
2023-02-11T07:09:42.418Z,5.20
2023-02-11T07:12:12.124Z,5.20
2023-02-11T07:14:39.324Z,5.20
2023-02-11T07:17:06.372Z,5.20
2023-02-11T07:19:33.386Z,5.20
2023-02-11T07:22:00.373Z,5.20
2023-02-11T07:24:27.401Z,5.20
2023-02-11T07:26:54.572Z,5.30
2023-02-11T07:29:21.634Z,5.30
2023-02-11T07:31:48.808Z,5.20
2023-02-11T07:34:15.855Z,5.20
2023-02-11T07:36:43.925Z,5.20
2023-02-11T07:39:10.918Z,5.30
2023-02-11T07:41:38.637Z,5.30
2023-02-11T07:44:06.267Z,5.30
2023-02-11T07:46:34.651Z,5.40
2023-02-11T07:49:01.962Z,5.40
2023-02-11T07:51:30.250Z,5.40
2023-02-11T07:53:59.768Z,5.50
2023-02-11T07:56:28.079Z,5.40
2023-02-11T07:58:56.885Z,5.40
2023-02-11T08:01:27.265Z,5.50
2023-02-11T08:03:58.939Z,5.50
2023-02-11T08:06:28.283Z,5.40
2023-02-11T08:08:55.228Z,5.40
2023-02-11T08:11:27.940Z,5.50
2023-02-11T08:13:56.694Z,5.50
2023-02-11T08:16:25.577Z,5.50
2023-02-11T08:18:55.522Z,5.50
2023-02-11T08:21:22.455Z,5.50
2023-02-11T08:23:49.964Z,5.50
2023-02-11T08:26:20.206Z,5.50
2023-02-11T08:28:49.132Z,5.50
2023-02-11T08:31:19.393Z,5.50
2023-02-11T08:33:46.919Z,5.50
2023-02-11T08:36:23.303Z,5.40
2023-02-11T08:38:50.666Z,5.50
2023-02-11T08:41:18.601Z,5.40
2023-02-11T08:43:46.866Z,5.40
2023-02-11T08:46:16.736Z,5.40
2023-02-11T08:48:44.206Z,5.40
2023-02-11T08:51:15.946Z,5.40
2023-02-11T08:53:42.898Z,5.50
2023-02-11T08:56:14.299Z,5.40
2023-02-11T08:58:42.068Z,5.50
2023-02-11T09:01:23.026Z,5.60
2023-02-11T09:03:54.023Z,5.60
2023-02-11T09:06:22.596Z,5.60
2023-02-11T09:08:51.873Z,5.70
2023-02-11T09:11:26.249Z,5.70
2023-02-11T09:13:54.505Z,5.70
2023-02-11T09:16:24.798Z,5.70
2023-02-11T09:18:52.666Z,5.80
2023-02-11T09:21:20.467Z,5.80
2023-02-11T09:23:49.186Z,5.80
2023-02-11T09:26:18.277Z,5.90
2023-02-11T09:28:45.545Z,5.80
2023-02-11T09:31:17.010Z,5.80
2023-02-11T09:33:49.099Z,5.90
2023-02-11T09:36:22.321Z,5.80
2023-02-11T09:38:50.891Z,5.80
2023-02-11T09:41:24.864Z,5.70
2023-02-11T09:43:58.516Z,5.80
2023-02-11T09:46:28.785Z,5.70
2023-02-11T09:48:56.589Z,5.70
2023-02-11T09:51:38.639Z,5.70
2023-02-11T09:54:23.715Z,5.90
2023-02-11T09:56:50.892Z,6.00
2023-02-11T09:59:18.840Z,6.10
2023-02-11T10:02:00.793Z,6.30
2023-02-11T10:04:36.883Z,6.40
2023-02-11T10:07:17.584Z,6.50
2023-02-11T10:09:47.542Z,6.50
2023-02-11T10:12:32.879Z,6.30
2023-02-11T10:15:21.997Z,6.20
2023-02-11T10:18:27.622Z,6.20
2023-02-11T10:21:15.856Z,6.10
2023-02-11T10:23:51.857Z,6.00
2023-02-11T10:26:19.899Z,6.00
2023-02-11T10:28:50.626Z,5.90
2023-02-11T10:31:36.195Z,5.80
2023-02-11T10:34:07.288Z,5.60
2023-02-11T10:36:37.658Z,5.60
2023-02-11T10:39:32.095Z,5.40
2023-02-11T10:42:13.704Z,5.40
2023-02-11T10:44:57.558Z,5.20
2023-02-11T10:47:28.126Z,5.20
2023-02-11T10:49:55.195Z,5.10
2023-02-11T10:52:26.855Z,5.10
2023-02-11T10:55:04.634Z,5.00
2023-02-11T10:57:38.414Z,5.00
2023-02-11T11:00:29.145Z,4.90
2023-02-11T11:02:59.195Z,4.80
2023-02-11T11:05:31.087Z,4.80
2023-02-11T11:08:02.134Z,4.80
2023-02-11T11:10:43.861Z,4.80
2023-02-11T11:13:30.473Z,4.80
2023-02-11T11:16:22.363Z,4.80
2023-02-11T11:18:52.984Z,4.80
2023-02-11T11:21:23.030Z,4.80
2023-02-11T11:23:52.124Z,4.80
2023-02-11T11:26:19.529Z,4.80
2023-02-11T11:29:02.506Z,4.70
2023-02-11T11:31:35.500Z,4.70
2023-02-11T11:34:20.609Z,4.70
2023-02-11T11:36:48.041Z,4.70
2023-02-11T11:39:25.677Z,4.80
2023-02-11T11:42:01.577Z,4.70
2023-02-11T11:44:37.508Z,4.70
2023-02-11T11:47:20.235Z,4.60
2023-02-11T11:49:53.372Z,4.60
2023-02-11T11:52:26.927Z,4.50
2023-02-11T11:55:10.851Z,4.50
2023-02-11T11:57:39.532Z,4.40
2023-02-11T12:00:34.486Z,4.40
2023-02-11T12:03:29.211Z,4.40
2023-02-11T12:06:11.368Z,4.20
2023-02-11T12:08:53.889Z,4.70
2023-02-11T12:11:36.892Z,5.00
2023-02-11T12:14:21.136Z,5.30
2023-02-11T12:16:55.331Z,5.80
2023-02-11T12:19:57.985Z,5.80
2023-02-11T12:22:46.345Z,5.50
2023-02-11T12:25:36.083Z,5.00
2023-02-11T12:28:15.259Z,5.20
2023-02-11T12:31:12.023Z,5.50
2023-02-11T12:34:17.659Z,5.70
2023-02-11T12:37:02.595Z,5.80
2023-02-11T12:39:47.571Z,5.70
2023-02-11T12:43:17.552Z,5.20
2023-02-11T12:46:14.923Z,4.80
2023-02-11T12:48:56.987Z,4.70
2023-02-11T12:51:40.384Z,4.80
2023-02-11T12:54:24.340Z,4.60
2023-02-11T12:57:02.182Z,4.40
2023-02-11T12:59:59.972Z,4.30
2023-02-11T13:02:42.059Z,4.70
2023-02-11T13:05:27.384Z,5.00
2023-02-11T13:08:09.738Z,5.40
2023-02-11T13:10:40.247Z,5.60
2023-02-11T13:13:33.574Z,5.40
2023-02-11T13:16:17.542Z,4.60
2023-02-11T13:19:03.877Z,4.00
2023-02-11T13:21:49.694Z,3.80
2023-02-11T13:24:49.448Z,3.70
2023-02-11T13:27:25.515Z,3.90
2023-02-11T13:30:34.522Z,4.00
2023-02-11T13:33:01.481Z,4.00
2023-02-11T13:35:33.297Z,4.00
2023-02-11T13:38:03.308Z,3.80
2023-02-11T13:40:34.863Z,3.60
2023-02-11T13:43:04.297Z,3.50
2023-02-11T13:45:43.062Z,3.60
2023-02-11T13:48:31.943Z,3.60
2023-02-11T13:51:10.847Z,3.70
2023-02-11T13:53:54.825Z,3.60
2023-02-11T13:56:40.622Z,3.50
2023-02-11T13:59:33.478Z,3.50
2023-02-11T14:02:18.674Z,3.40
2023-02-11T14:05:22.184Z,3.40
2023-02-11T14:08:32.365Z,3.40
2023-02-11T14:11:12.449Z,3.50
2023-02-11T14:13:48.366Z,3.40
2023-02-11T14:16:31.632Z,3.20
2023-02-11T14:19:03.757Z,3.10
2023-02-11T14:21:37.271Z,3.00
2023-02-11T14:24:10.898Z,3.00
2023-02-11T14:27:05.745Z,2.90
2023-02-11T14:29:47.930Z,2.90
2023-02-11T14:32:26.383Z,3.00
2023-02-11T14:35:02.427Z,3.10
2023-02-11T14:37:50.642Z,3.10
2023-02-11T14:40:24.098Z,3.00
2023-02-11T14:42:52.460Z,3.00
2023-02-11T14:45:25.970Z,3.00
2023-02-11T14:48:04.807Z,3.00
2023-02-11T14:51:08.907Z,3.00
2023-02-11T14:53:38.075Z,2.80
2023-02-11T14:56:22.533Z,2.50
2023-02-11T14:58:51.940Z,2.40
2023-02-11T15:01:40.876Z,2.20
2023-02-11T15:04:28.036Z,2.10
2023-02-11T15:06:57.486Z,2.00
2023-02-11T15:09:34.252Z,2.10
2023-02-11T15:12:01.398Z,2.10
2023-02-11T15:14:31.955Z,2.00
2023-02-11T15:17:02.372Z,2.10
2023-02-11T15:19:36.069Z,2.30
2023-02-11T15:22:08.260Z,2.30
2023-02-11T15:24:36.022Z,2.30
2023-02-11T15:27:09.467Z,2.30
2023-02-11T15:29:43.321Z,2.40
2023-02-11T15:32:15.450Z,2.30
2023-02-11T15:34:43.619Z,2.30
2023-02-11T15:37:24.465Z,2.20
2023-02-11T15:39:52.655Z,2.30
2023-02-11T15:42:34.068Z,2.30
2023-02-11T15:45:38.529Z,2.30
2023-02-11T15:48:47.560Z,2.30
2023-02-11T15:51:33.090Z,2.30
2023-02-11T15:54:03.470Z,2.30
2023-02-11T15:56:47.503Z,2.30
2023-02-11T15:59:20.480Z,2.30
2023-02-11T16:01:48.904Z,2.30
2023-02-11T16:04:26.801Z,2.20
2023-02-11T16:06:56.150Z,2.10
2023-02-11T16:09:32.992Z,2.10
2023-02-11T16:12:07.609Z,2.10
2023-02-11T16:14:39.491Z,2.00
2023-02-11T16:17:19.689Z,1.90
2023-02-11T16:19:48.720Z,1.80
2023-02-11T16:22:25.402Z,1.70
2023-02-11T16:24:55.383Z,1.60
2023-02-11T16:27:31.187Z,1.50
2023-02-11T16:29:58.858Z,1.50
2023-02-11T16:32:29.812Z,1.50
2023-02-11T16:34:59.245Z,1.50
2023-02-11T16:37:26.399Z,1.40
2023-02-11T16:39:58.382Z,1.30
2023-02-11T16:42:25.783Z,1.20
2023-02-11T16:44:53.176Z,1.10
2023-02-11T16:47:27.568Z,1.10
2023-02-11T16:49:56.661Z,1.00
2023-02-11T16:52:23.812Z,1.00
2023-02-11T16:54:52.137Z,1.00
2023-02-11T16:57:21.985Z,1.00
2023-02-11T16:59:49.264Z,0.90
2023-02-11T17:02:36.921Z,0.90
2023-02-11T17:05:15.613Z,0.90
2023-02-11T17:07:42.632Z,0.90
2023-02-11T17:10:18.441Z,0.80
2023-02-11T17:12:45.425Z,0.80
2023-02-11T17:15:12.446Z,0.80
2023-02-11T17:17:39.413Z,0.70
2023-02-11T17:20:07.364Z,0.60
2023-02-11T17:22:34.351Z,0.60
2023-02-11T17:25:01.242Z,0.50
2023-02-11T17:27:28.210Z,0.50
2023-02-11T17:29:55.294Z,0.40
2023-02-11T17:32:22.476Z,0.50
2023-02-11T17:34:49.446Z,0.40
2023-02-11T17:37:16.360Z,0.30
2023-02-11T17:39:44.811Z,0.30
2023-02-11T17:42:12.094Z,0.30
2023-02-11T17:44:39.260Z,0.30
2023-02-11T17:47:06.263Z,0.30
2023-02-11T17:49:33.188Z,0.20
2023-02-11T17:52:00.330Z,0.20
2023-02-11T17:54:27.264Z,0.10
2023-02-11T17:56:57.834Z,0.10
2023-02-11T17:59:26.043Z,0.00
2023-02-11T18:01:53.177Z,-0.10
2023-02-11T18:04:20.607Z,-0.10
2023-02-11T18:06:47.628Z,-0.10
2023-02-11T18:09:14.630Z,-0.20
2023-02-11T18:11:41.717Z,-0.30
2023-02-11T18:14:09.221Z,-0.40
2023-02-11T18:16:39.124Z,-0.50
2023-02-11T18:19:07.905Z,-0.50
2023-02-11T18:21:35.214Z,-0.60
2023-02-11T18:24:06.456Z,-0.60
2023-02-11T18:26:34.297Z,-0.60
2023-02-11T18:29:01.785Z,-0.70
2023-02-11T18:31:28.884Z,-0.80
2023-02-11T18:33:56.211Z,-0.80
2023-02-11T18:36:23.721Z,-0.80
2023-02-11T18:38:52.710Z,-0.80
2023-02-11T18:41:20.098Z,-0.90
2023-02-11T18:43:47.263Z,-0.80
2023-02-11T18:46:15.200Z,-0.80
2023-02-11T18:48:42.301Z,-0.80
2023-02-11T18:51:14.755Z,-0.80
2023-02-11T18:53:42.417Z,-0.90
2023-02-11T18:56:15.239Z,-0.90
2023-02-11T18:58:42.226Z,-0.90
2023-02-11T19:01:23.095Z,-0.90
2023-02-11T19:03:50.769Z,-0.90
2023-02-11T19:06:23.577Z,-1.00
2023-02-11T19:08:58.930Z,-1.00
2023-02-11T19:11:52.066Z,-1.00
2023-02-11T19:14:28.843Z,-1.10
2023-02-11T19:17:00.057Z,-1.10
2023-02-11T19:19:40.125Z,-1.10
2023-02-11T19:22:10.906Z,-1.10
2023-02-11T19:24:45.459Z,-1.10
2023-02-11T19:27:14.221Z,-1.00
2023-02-11T19:29:45.358Z,-0.90
2023-02-11T19:32:19.437Z,-0.70
2023-02-11T19:34:54.325Z,-0.60
2023-02-11T19:37:23.137Z,-0.50
2023-02-11T19:39:52.491Z,-0.40
2023-02-11T19:42:25.839Z,-0.40
2023-02-11T19:44:59.859Z,-0.50
2023-02-11T19:47:31.528Z,-0.40
2023-02-11T19:49:58.824Z,-0.40
2023-02-11T19:52:28.949Z,-0.30
2023-02-11T19:55:00.731Z,-0.30
2023-02-11T19:57:36.010Z,-0.30
2023-02-11T20:00:12.070Z,-0.20
2023-02-11T20:02:46.545Z,0.10
2023-02-11T20:05:18.086Z,0.30
2023-02-11T20:07:46.995Z,0.30
2023-02-11T20:10:19.475Z,0.40
2023-02-11T20:12:55.449Z,0.60
2023-02-11T20:15:24.529Z,0.70
2023-02-11T20:17:52.870Z,0.70
2023-02-11T20:20:24.305Z,0.80
2023-02-11T20:22:52.079Z,0.70
2023-02-11T20:25:20.595Z,0.70
2023-02-11T20:27:48.783Z,0.70
2023-02-11T20:30:15.973Z,0.60
2023-02-11T20:32:43.000Z,0.60
2023-02-11T20:35:12.268Z,0.60
2023-02-11T20:37:41.692Z,0.70
2023-02-11T20:40:10.263Z,0.70
2023-02-11T20:42:37.190Z,0.60
2023-02-11T20:45:04.298Z,0.70
2023-02-11T20:47:31.251Z,0.80
2023-02-11T20:49:58.285Z,0.90
2023-02-11T20:52:25.193Z,1.00
2023-02-11T20:54:52.155Z,1.00
2023-02-11T20:57:19.897Z,1.00
2023-02-11T20:59:46.908Z,1.00
2023-02-11T21:02:14.856Z,0.90
2023-02-11T21:04:41.904Z,1.10
2023-02-11T21:07:08.980Z,1.20
2023-02-11T21:09:36.025Z,1.30
2023-02-11T21:12:03.725Z,1.40
2023-02-11T21:14:31.055Z,1.40
2023-02-11T21:16:58.861Z,1.40
2023-02-11T21:19:25.914Z,1.30
2023-02-11T21:21:53.315Z,1.30
2023-02-11T21:24:20.413Z,1.30
2023-02-11T21:26:47.420Z,1.20
2023-02-11T21:29:14.556Z,1.10
2023-02-11T21:31:41.861Z,1.00
2023-02-11T21:34:09.982Z,0.90
2023-02-11T21:36:37.077Z,0.70
2023-02-11T21:39:04.370Z,0.60
2023-02-11T21:41:31.919Z,0.70
2023-02-11T21:43:59.131Z,0.70
2023-02-11T21:46:26.733Z,0.70
2023-02-11T21:48:53.865Z,0.90
2023-02-11T21:51:25.085Z,1.10
2023-02-11T21:53:56.896Z,1.20
2023-02-11T21:56:28.263Z,1.30
2023-02-11T21:58:57.116Z,1.40
2023-02-11T22:01:42.284Z,1.50
2023-02-11T22:04:09.933Z,1.50
2023-02-11T22:06:36.883Z,1.50
2023-02-11T22:09:06.904Z,1.50
2023-02-11T22:11:34.457Z,1.50
2023-02-11T22:14:01.641Z,1.60
2023-02-11T22:16:29.268Z,1.70
2023-02-11T22:19:00.299Z,1.70
2023-02-11T22:21:27.336Z,1.70
2023-02-11T22:23:55.708Z,1.70
2023-02-11T22:26:24.528Z,1.80
2023-02-11T22:28:53.754Z,1.70
2023-02-11T22:31:26.906Z,1.60
2023-02-11T22:33:54.496Z,1.60
2023-02-11T22:36:36.292Z,1.50
2023-02-11T22:39:15.415Z,1.30
2023-02-11T22:41:43.947Z,1.20
2023-02-11T22:44:11.927Z,1.10
2023-02-11T22:46:40.019Z,1.00
2023-02-11T22:49:07.711Z,0.90
2023-02-11T22:51:34.854Z,0.80
2023-02-11T22:54:06.930Z,0.70
2023-02-11T22:56:35.458Z,0.60
2023-02-11T22:59:05.861Z,0.40
2023-02-11T23:01:33.737Z,0.40
2023-02-11T23:04:03.530Z,0.30
2023-02-11T23:06:30.709Z,0.40
2023-02-11T23:08:57.958Z,0.60
2023-02-11T23:11:27.731Z,0.50
2023-02-11T23:13:55.437Z,0.60
2023-02-11T23:16:26.206Z,0.70
2023-02-11T23:18:54.436Z,0.70
2023-02-11T23:21:24.645Z,0.80
2023-02-11T23:23:59.885Z,1.00
2023-02-11T23:26:27.145Z,1.20
2023-02-11T23:28:54.237Z,1.30
2023-02-11T23:31:34.390Z,1.50
2023-02-11T23:34:02.326Z,1.60
2023-02-11T23:36:31.177Z,1.60
2023-02-11T23:38:58.370Z,1.50
2023-02-11T23:41:25.661Z,1.40
2023-02-11T23:43:55.320Z,1.40
2023-02-11T23:46:23.785Z,1.50
2023-02-11T23:48:52.026Z,1.60
2023-02-11T23:51:19.454Z,1.70
2023-02-11T23:53:46.880Z,1.90
2023-02-11T23:56:19.904Z,1.90
2023-02-11T23:58:51.070Z,1.90
